Está en la página 1de 16

Fuente: SENAMHI / DRD

* Datos sin control de calidad.


* El uso de estos datos será de entera responsabilidad del usuario.
Leyenda:
* S/D = Sin Datos.
* T = Trazas (Precipitación < 0.1 mm/día).

Estación : PAMPAS
Departamento :  HUANCAVELICA Provincia :  TAYACAJA Distrito : 
Latitud :  12°24'7.3'' Longitud :  74°53'2.9'' Altitud : 
Tipo :  CO - Meteorológica Código :  112012
TEMPERATURA (°C) PRECIPITACIÓN (mm/día)
AÑO / MES / DÍA MAX MIN HUMEDAD RELATIVA (%) TOTAL
1/1/2018 16.8 7 78.7 0

1/2/2018 15.6 7.8 82.6 20.6


1/3/2018 17 6.8 80.6 0
1/4/2018 16.8 7 78.8 0
1/5/2018 17.4 8 79.9 2
1/6/2018 18 7 81.3 7.6
1/7/2018 16 4.6 84.2 10.3
1/8/2018 16 7 87.6 0.3
1/9/2018 15.4 8 79.4 0
1/10/2018 16.4 4 81.3 0
1/11/2018 16.2 8 82.7 0.4
1/12/2018 17 6.4 83.6 7.4
1/13/2018 17.8 4 76.5 0
1/14/2018 18 2.6 73.8 2.6
1/15/2018 13 9 89.2 3.4
1/16/2018 17 8.2 80.1 7
1/17/2018 16.8 8 81.4 9.6
1/18/2018 14 7.8 82.4 1.2
1/19/2018 16.4 8.6 87 12.4
1/20/2018 15.6 7.4 85.1 0
1/21/2018 17.6 5.6 76.2 22.4
1/22/2018 14 5.8 89.4 1.1
1/23/2018 15 5.4 86.3 4.6
1/24/2018 17 5.6 78.2 0
1/25/2018 17.8 6.2 78.8 0
1/26/2018 17.6 1.8 79.3 0
1/27/2018 20.6 4.6 72.5 0
1/28/2018 20.8 0 70.4 0
1/29/2018 19.4 -1.4 73.4 0
1/30/2018 19 2 74.1 0
1/31/2018 18.8 2 71.9 0
2/1/2018 19 1.6 70.8 1.4
2/2/2018 19.2 5 73.9 4
2/3/2018 19.8 4.2 75.8 2.9
2/4/2018 18.4 3.2 74.1 9.1
2/5/2018 17 8.4 83 0
2/6/2018 19.8 7.2 78.4 0
2/7/2018 20 6 74.4 0
2/8/2018 19.8 7 79.8 7.8
2/9/2018 17 9 83.9 1.6
2/10/2018 17.2 9.2 78.2 19.5
2/11/2018 16.6 6.8 79.1 0
2/12/2018 17.8 7.4 73.7 9.4
2/13/2018 17.6 9.2 80.4 0
2/14/2018 17.8 9.2 78.3 0
2/15/2018 16.8 9.4 78.9 4.7
2/16/2018 15.8 8.2 79 0
2/17/2018 18.8 6.2 79.7 7.1
2/18/2018 18 7.2 78 4.2
2/19/2018 16.2 6.8 81.2 0.6
2/20/2018 17.2 6.6 70.1 14.8
2/21/2018 17.6 7.8 79.9 0.7
2/22/2018 17.6 4.4 77.8 0
2/23/2018 17.6 8 80.3 0
2/24/2018 17.4 6.2 71.7 8.6
2/25/2018 16.4 6.2 84.7 0.9
2/26/2018 16 8.6 80.9 3
2/27/2018 16.6 8.4 78.2 0
2/28/2018 17.6 5.6 81.5 0.7
3/1/2018 16.6 8.6 74.2 0
3/2/2018 16.6 7.4 81.4 2.7
3/3/2018 16.2 7.8 83.6 0
3/4/2018 17.2 5.2 77 1.8
3/5/2018 15.2 8.2 79.1 4.2
3/6/2018 15 8.4 81.4 10.9
3/7/2018 14.8 7 79.2 11.5
3/8/2018 17 5.4 75.9 0
3/9/2018 16.8 8.8 80.5 0
3/10/2018 18 5 76.9 4.7
3/11/2018 17.8 8.6 77.3 17.8
3/12/2018 17.4 7.6 81.5 6.7
3/13/2018 18.6 8.8 86.2 1.9
3/14/2018 18.4 7 85.1 7.4
3/15/2018 16.2 8.6 83.3 0
3/16/2018 16.4 9 83 12.8
3/17/2018 17.6 8.6 85.2 6.8
3/18/2018 17 9.2 80.3 0
3/19/2018 17 9.6 86.4 1.3
3/20/2018 17.4 4.6 81.5 0
3/21/2018 17.8 8 85.7 0
3/22/2018 17.8 7.2 79.1 22.5
3/23/2018 17.4 8.4 86 9.7
3/24/2018 18 8.8 77.5 0
3/25/2018 14.6 7 92.2 3.4
3/26/2018 17.6 1.2 77.3 0
3/27/2018 17 6.6 79.1 0
3/28/2018 18 7.8 75.9 5.2
3/29/2018 17.8 4.2 79.4 0.6
3/30/2018 18 7.8 79.9 0
3/31/2018 18.6 3.2 77.9 0
4/1/2018 17.6 2.4 79.5 0
4/2/2018 18.4 5.6 71.9 0
4/3/2018 16.2 4.4 74.9 2.4
4/4/2018 17.4 6.4 78.8 0
4/5/2018 19 2 75 0
4/6/2018 18 4.8 79.2 5.1
4/7/2018 18.2 0.4 78 7.1
4/8/2018 18 5.8 80.4 7.4
4/9/2018 16.8 7 80.6 2.3
4/10/2018 18 7.8 74.9 0
4/11/2018 20 4 75.3 0
4/12/2018 16.8 2.4 80.4 0
4/13/2018 16 4 83.4 10.7
4/14/2018 15.2 5.2 83 0
4/15/2018 17 0.6 72.5 0
4/16/2018 17.6 2.8 81.8 0
4/17/2018 18 -0.2 82.2 0
4/18/2018 17 3.6 73.2 0
4/19/2018 17.4 3.2 76.7 0
4/20/2018 17.8 5.2 74.4 0
4/21/2018 16.8 3 78.4 0
4/22/2018 17.2 2.2 78.5 0
4/23/2018 17.4 6.6 80.9 0
4/24/2018 16 5 86.5 5.7
4/25/2018 15 8 89.6 2.8
4/26/2018 15 5.2 84.5 0.9
4/27/2018 17 0 80.2 0.7
4/28/2018 S/D 4 S/D 3.4
4/29/2018 17 5.2 83.9 0
4/30/2018 18.4 0.8 75.9 0
5/1/2018 14.2 5 87.8 4.5
5/2/2018 17.8 0.4 78.1 0
5/3/2018 18.2 0.8 76.1 0
5/4/2018 17 0.8 82.9 0
5/5/2018 17.2 1 82.9 0
5/6/2018 16.6 3 76.8 0
5/7/2018 16.4 7 83.7 0
5/8/2018 16.6 0.2 79.4 0
5/9/2018 17.8 3.2 80.5 0
5/10/2018 19.4 0.2 77.1 0
5/11/2018 19.2 3 81.5 0
5/12/2018 18.6 2.2 77.3 1.7
5/13/2018 17.6 0 78.3 0
5/14/2018 18.2 -1 69.4 0
5/15/2018 18 0.6 74.1 0
5/16/2018 18 -1 73.7 0
5/17/2018 17.8 -1 75.4 0
5/18/2018 18.6 -0.8 75.8 0
5/19/2018 17.4 -1.2 77.9 0
5/20/2018 17.6 -2 79.4 1.7
5/21/2018 18.4 0 72.7 0
5/22/2018 16.6 -1 82.5 0
5/23/2018 17 4.8 75 0
5/24/2018 17 1.8 77.6 0
5/25/2018 18 -1.2 63.5 0
5/26/2018 18.2 2 68.8 0
5/27/2018 17.4 -1.4 76.3 0
5/28/2018 17.2 1.2 75.8 0
5/29/2018 18 0 74.9 0
5/30/2018 S/D -1.6 S/D 0
5/31/2018 17.6 -3.2 71.1 0
6/1/2018 17.2 -1.6 74 0
6/2/2018 14.8 4 77.4 1.5
6/3/2018 12.8 5 91.5 4.6
6/4/2018 13.2 4.4 80.9 1.8
6/5/2018 15 1 77.9 0
6/6/2018 17.4 1 73.2 0
6/7/2018 18 -2.2 68.2 0
6/8/2018 17.6 -1.4 73.5 0
6/9/2018 16.8 -2 74 0
6/10/2018 17 1.4 73.8 0
6/11/2018 16 4 74.5 0
6/12/2018 16.2 5.4 73.9 2
6/13/2018 14.2 6.4 87.1 1.7
6/14/2018 13.4 6.6 80.3 0
6/15/2018 15.6 4 75.6 0
6/16/2018 13.6 6 77.9 0
6/17/2018 16.4 6.2 75 0
6/18/2018 16.8 1 69.2 0
6/19/2018 17.8 -2.4 72.8 0
6/20/2018 17.8 -4 65.3 0
6/21/2018 18 -4.2 58.2 0
6/22/2018 17.8 -4 64.1 0
6/23/2018 18 -3.4 66 0
6/24/2018 17.4 -2.4 67.9 0
6/25/2018 15 -1 75.4 0
6/26/2018 16.8 1 74.4 0
6/27/2018 17.8 0.8 69.8 0
6/28/2018 18 4.8 69.2 0
6/29/2018 18 -1.4 64.9 0
6/30/2018 18.6 -3 67.1 0
7/1/2018 19 -3.4 66.8 0
7/2/2018 19 -5.4 59.4 0
7/3/2018 17.6 -4.4 65 0
7/4/2018 17 0.6 74.8 0
7/5/2018 19.4 -1.2 68.8 0
7/6/2018 19.6 -2.4 67.6 0
7/7/2018 20 -5.6 57.1 0
7/8/2018 17.6 -7.4 65.3 0
7/9/2018 16.2 0.2 77.4 0
7/10/2018 14 2.6 75.3 0
7/11/2018 15.2 4.4 74.7 2
7/12/2018 12 5 80.5 1.2
7/13/2018 12 5.4 80.2 0
7/14/2018 16 -1.8 68.2 0
7/15/2018 17 -0.8 64.1 0
7/16/2018 16.8 -0.2 71.4 0
7/17/2018 17 -3.4 67.8 0
7/18/2018 15 -2.2 78.4 0.3
7/19/2018 16 1.2 66.6 2.7
7/20/2018 14.6 4 77.8 3
7/21/2018 12 5 89 11.5
7/22/2018 13.2 5.2 89.5 0.2
7/23/2018 17.4 5.4 73.7 0
7/24/2018 16 5 74.3 0
7/25/2018 17.2 5.8 70.5 0
7/26/2018 17 -2.2 69.3 0
7/27/2018 19 -3.2 61.7 0
7/28/2018 19.2 -3 57.6 0
7/29/2018 19.2 -3.2 66.1 0
7/30/2018 22.4 -3.8 57.2 0
7/31/2018 16.6 0.2 71.8 0
8/1/2018 15.8 4.4 74.4 0
8/2/2018 16 0.4 72.6 1.8
8/3/2018 17 4.6 76.3 0
8/4/2018 17.8 -1.6 72.1 0
8/5/2018 17 0.8 82.3 1.2
8/6/2018 15.4 5.2 81.6 3.3
8/7/2018 16 1.2 77.1 0
8/8/2018 17 -0.2 78 11.7
8/9/2018 16.6 3.8 74.6 0
8/10/2018 16.8 3.6 77.2 0
8/11/2018 16.8 -0.2 70.6 0
8/12/2018 17.6 0.2 69.4 0
8/13/2018 18 -2 72.3 0
8/14/2018 18.4 -2.4 70.2 0
8/15/2018 17.2 0.4 71.1 0
8/16/2018 14 4.2 79.6 0
8/17/2018 16.6 5.4 75.9 0
8/18/2018 17.6 -0.2 75.3 0
8/19/2018 17 -0.4 77.6 19
8/20/2018 15.2 2 79.9 0.5
8/21/2018 14.8 7.4 83.5 2.5
8/22/2018 16 7 79.7 0
8/23/2018 18.6 0.4 71.6 0
8/24/2018 19 -0.2 68.7 0
8/25/2018 18.8 1.6 67.5 0
8/26/2018 19 4.6 72.2 0
8/27/2018 16.4 4.2 72.9 0
8/28/2018 17.2 2 69.6 0
8/29/2018 18 -2.2 69.8 0
8/30/2018 19 1.8 67.2 0
8/31/2018 18.8 -1 66.7 0
9/1/2018 19.6 2 61.8 0
9/2/2018 19 -0.4 65.7 0
9/3/2018 18 2 72.9 0
9/4/2018 18 -0.6 62.2 0
9/5/2018 19.8 -3 63.7 0
9/6/2018 19.4 -4.2 52.4 0
9/7/2018 20 -4 51.4 0
9/8/2018 19.8 -3.8 56 0
9/9/2018 20 -1.6 60.4 0
9/10/2018 17.6 2.6 69.6 0
9/11/2018 18 2 67 0
9/12/2018 17.6 0.4 63.6 0
9/13/2018 18.8 1.2 71.2 0
9/14/2018 18.8 2.8 69.6 0
9/15/2018 17.2 0.2 76.4 0
9/16/2018 19 3 72.5 0
9/17/2018 19.2 5.4 70 0
9/18/2018 19.4 0.2 68.7 2
9/19/2018 21 0 63.5 0
9/20/2018 18 -1 76.3 0
9/21/2018 18.8 0.4 65.3 0
9/22/2018 19 1.2 74.1 6.6
9/23/2018 17.2 1.6 77 0
9/24/2018 18 3.2 79 1
9/25/2018 18.2 1.8 76.1 3.1
9/26/2018 17.8 4 78.8 2.1
9/27/2018 19.2 1.2 67.6 0
9/28/2018 19 0 64.7 0
9/29/2018 19.2 5 68.6 0
9/30/2018 19.6 4.2 72.1 0
10/1/2018 18.6 4.8 75 0.8
10/2/2018 19.4 4 66.9 0
10/3/2018 18.8 4.4 72.8 0
10/4/2018 17.8 4.6 70.4 0
10/5/2018 14.4 7.4 76.8 1.6
10/6/2018 17 8.6 74.6 3.4
10/7/2018 17.2 7.4 79.4 2.2
10/8/2018 20 3 62 0
10/9/2018 18.8 2.6 73.9 0
10/10/2018 19 5.6 75.9 0.2
10/11/2018 18.8 4.6 78.6 1.9
10/12/2018 18 2 73.6 0.9
10/13/2018 18 5.4 78.6 0
10/14/2018 16.8 8 78.1 0
10/15/2018 18.2 6.6 77.9 2
10/16/2018 20 6.8 78 5
10/17/2018 21 3.4 73.7 6.7
10/18/2018 18.6 6 77.8 0
10/19/2018 19.4 6.4 72.2 5.4
10/20/2018 18.4 4.6 73.2 0.3
10/21/2018 18 8.4 83.9 8.1
10/22/2018 17.8 3 81.6 0
10/23/2018 19.6 4 74.3 3.5
10/24/2018 17.6 4.6 78.7 2.1
10/25/2018 17.8 8.8 81.6 0
10/26/2018 17 7.8 77.6 4.2
10/27/2018 17 7.4 75.8 2.4
10/28/2018 19.6 6.4 71.5 5.4
10/29/2018 18.6 5 72.8 4.8
10/30/2018 18.6 8.8 72.6 2.5
10/31/2018 15.6 4.8 81.5 2.7
11/1/2018 18 7.6 71.9 0
11/2/2018 19.6 6 77.4 15
11/3/2018 19.4 6.4 70.8 1.1
11/4/2018 20 4.2 69.2 4
11/5/2018 19.4 2.6 69.9 0
11/6/2018 19 7.4 71.2 0
11/7/2018 19.2 5.4 75.6 0
11/8/2018 17.2 4 83.2 1.3
11/9/2018 18.2 5.4 79.3 2
11/10/2018 20.2 2.8 71.7 0
11/11/2018 18 4.2 70.1 0
11/12/2018 20 6.2 72.9 2.3
11/13/2018 19.2 3 76.3 0
11/14/2018 19 6.4 75.9 0
11/15/2018 18.8 6 75.1 0
11/16/2018 18.6 9.4 74.4 0
11/17/2018 20.8 0.6 64.4 0
11/18/2018 19.4 4.6 71.7 0
11/19/2018 19.2 1.6 76.1 5
11/20/2018 18.6 7 74.7 0
11/21/2018 19.6 5.2 74.4 1.7
11/22/2018 20.4 6 66.6 0
11/23/2018 22 1.8 67.7 0
11/24/2018 20.2 6 63.9 0
11/25/2018 15.6 8.8 84.7 5.8
11/26/2018 18.6 8.4 78.5 7.7
11/27/2018 20 2.2 71.3 0
11/28/2018 19.6 6.8 72.3 0.3
11/29/2018 20.2 1.8 63.8 0
11/30/2018 20.4 -1.2 59.3 0
12/1/2018 21.6 -3.6 54.2 0
12/2/2018 20.2 -3 58.2 0
12/3/2018 20 1.2 65.5 0
12/4/2018 21.2 -1.6 62.6 0
12/5/2018 20.2 -1.2 60.6 0
12/6/2018 20 6.2 63.1 0.4
12/7/2018 15.6 4.8 83.4 2.5
12/8/2018 17 3.2 82.1 0.6
12/9/2018 20.4 0 69 0
12/10/2018 19.6 -2 71.5 1.1
12/11/2018 19 2.2 68.8 0
12/12/2018 21 4.2 56.9 0
12/13/2018 20.6 0.2 63.2 0
12/14/2018 21 -1 63.6 0
12/15/2018 15.6 3.2 88.2 7
12/16/2018 18 7.4 74.3 0.2
12/17/2018 17.8 8.6 87.6 0.8
12/18/2018 16.6 5 84.3 4.6
12/19/2018 17.2 5.2 78 0
12/20/2018 18.2 6.4 75.2 1.2
12/21/2018 18.4 5.8 64 0
12/22/2018 19.2 3 66.3 0
12/23/2018 19.8 8.8 63.3 0.2
12/24/2018 20 2 69.5 3.4
12/25/2018 17.8 7.4 72.1 0
12/26/2018 17 8.2 84.4 3.9
12/27/2018 19.4 3 71 11.7
12/28/2018 18 4.6 73.3 0
12/29/2018 18.8 1.8 74.7 1.6
12/30/2018 19 3 72.5 0
12/31/2018 17.8 2.2 79.6 0.9
PAMPAS
3245 msnm. 16.9290323 17.73571429 17.0903226
5.63870968 6.892857143 7.21290323
11.283871 12.31428571 12.1516129
TABLA CLIMÁTICA // DATOS HISTÓRICOS DEL TIEMPO PAMPAS
Enero Febrero Marzo
Temperatura media (°C) 11.2838709677 12.31428571429 12.1516129032

Temperatura min. (°C) -1.4 1.6 1.2


Temperatura máx. (°C) 20.8 20 18.6
Precipitación (mm) 112.9 101 131.9
17.2482759 17.5866667 16.4333333 16.7806452 17.0774194 18.8066667 18.2387097 19.28
3.91333333 0.70322581 1 -0.11612903 1.76774194 0.86 5.6516129 4.88666667
10.5808046 9.14494624 8.71666667 8.33225806 9.42258065 9.83333333 11.9451613 12.0833333
EL TIEMPO PAMPAS
Abril Mayo Junio ​Julio Agosto Septiembre Octubre Noviembre
10.5808045977 9.14494623656 8.71666666667 8.33225806452 9.42258064516 9.83333333333 11.9451612903 12.0833333333

-0.2 -3.2 -4.2 -7.4 -2.4 -4.2 2 -1.2


20 19.4 18.6 22.4 19 21 21 22
48.5 7.9 11.6 20.9 40 14.8 66.1 46.2
18.9032258
3.07096774
10.9870968

Diciembre
10.9870967742

-3.6
21.6
40.1
Fuente: SENAMHI / DRD
* Datos sin control de calidad.
* El uso de estos datos será de entera responsabilidad del usuario.
Leyenda:
* S/D = Sin Datos.
* T = Trazas (Precipitación < 0.1 mm/día).

Estación : PAMPAS
Departamento :  HUANCAVELICA Provincia :  TAYACAJA Distrito : 
Latitud :  12°24'7.3'' Longitud :  74°53'2.9'' Altitud : 
Tipo :  CO - Meteorológica Código :  112012
TEMPERATURA (°C) PRECIPITACIÓN (mm/día)
AÑO / MES / DÍA MAX MIN HUMEDAD RELATIVA (%) TOTAL
1/1/2019 18 4.2 70.1 0
1/2/2019 18.6 8.6 76 0
1/3/2019 19.6 4.6 68.1 0
1/4/2019 18.4 7 72.3 0
1/5/2019 18.2 8.4 77.9 7
1/6/2019 20.2 6.8 71.4 0
1/7/2019 21 4.8 65.4 0
1/8/2019 18.8 5.2 71.9 6
1/9/2019 19.6 6.8 72.3 0.3
1/10/2019 20.6 7.4 70.4 8.7
1/11/2019 16.6 8 75.2 2.5
1/12/2019 17 6.8 76.3 4.4
1/13/2019 18.6 7.4 71.1 15.4
1/14/2019 16.8 7.8 82.5 0
1/15/2019 18.4 6.6 71.5 14
1/16/2019 17 8 83.3 0
1/17/2019 16.8 7.8 78.1 11.6
1/18/2019 13.2 7 85.3 8.2
1/19/2019 17 5.2 81.7 0
1/20/2019 17.6 6 80.9 7.1
1/21/2019 18 8 80.7 1.8
1/22/2019 17.6 7.2 79 11.2
1/23/2019 18 8.6 74.9 0
1/24/2019 18 9 78.1 5.1
1/25/2019 17.8 7.4 78.8 4.9
1/26/2019 17.6 6.4 75.6 0
1/27/2019 18 5.2 77.5 0
1/28/2019 18 8.8 73.7 0.8
1/29/2019 18.2 9 76.8 9.1
1/30/2019 16.2 8.8 81.3 0.3
1/31/2019 17 9.2 85.1 3.2
PAMPAS
3245 msnm.
Fuente: SENAMHI / DRD
* Datos sin control de calidad.
* El uso de estos datos será de entera responsabilidad del usuario.
Leyenda:
* S/D = Sin Datos.
* T = Trazas (Precipitación < 0.1 mm/día).

Estación : PAMPAS
Departamento :  HUANCAVELICA Provincia :  TAYACAJA Distrito : 
Latitud :  12°24'7.3'' Longitud :  74°53'2.9'' Altitud : 
Tipo :  CO - Meteorológica Código :  112012
TEMPERATURA (°C) PRECIPITACIÓN (mm/día)
AÑO / MES / DÍA MAX MIN HUMEDAD RELATIVA (%) TOTAL
1/1/2020 18 8 75.7 4.8
1/2/2020 17 9 86.8 3.6
1/3/2020 20 8.2 81.7 0
1/4/2020 19.2 9 71.9 0
1/5/2020 19 7.6 80.8 0
1/6/2020 18.8 4 76.3 0
1/7/2020 18 8 80.1 0
1/8/2020 18.8 6.6 80.3 0
1/9/2020 19.6 2.2 76.4 0
1/10/2020 19.4 6.4 71.1 0
1/11/2020 18 4.2 72.5 0
1/12/2020 19.4 3 74.3 0
1/13/2020 19 5 73.1 0
1/14/2020 16.6 5.2 86.9 0.7
1/15/2020 16.6 6 90 0
1/16/2020 17 5.2 80.9 6.1
1/17/2020 17 8.6 79.1 0.8
1/18/2020 16.4 5.4 79.1 0
1/19/2020 17.6 7 77.8 0
1/20/2020 19 7.8 73.4 0
1/21/2020 18.2 7.4 77.2 2.5
1/22/2020 15.2 9 87.3 0.6
1/23/2020 18.2 8 74.7 0.6
1/24/2020 18 9.8 78.4 4.6
1/25/2020 18.6 8.8 77.9 0
1/26/2020 18.4 3 79.9 0
1/27/2020 20.8 2.2 72.5 0
1/28/2020 21 4.2 76.8 3.1
1/29/2020 15.2 6.2 80.1 0
1/30/2020 16.4 6.8 79.2 0
1/31/2020 17 4.4 77.3 0
PAMPAS
3245 msnm.